Time;durP1;ratioP1;P1;durP2;ratioP2;P2;SDS_P1;SDS_P2;PMS_P1;PMS_P2;Temp;Humidity;BMP_temperature;BMP_pressure;BME280_temperature;BME280_humidity;BME280_pressure;Samples;Min_cycle;Max_cycle;Signal;HPM_P1;HPM_P2
2023/05/31 00:01:29;;;;;;;5.13;3.10;;;16.30;84.30;;;;;;5120196;28;20392;-78
2023/05/31 00:03:54;;;;;;;5.40;2.95;;;16.30;84.60;;;;;;5119440;28;20008;-78
2023/05/31 00:06:20;;;;;;;3.70;2.90;;;16.20;84.60;;;;;;5118103;28;20138;-78
2023/05/31 00:08:46;;;;;;;5.28;2.90;;;16.10;85.20;;;;;;5118173;28;20472;-79
2023/05/31 00:11:12;;;;;;;6.40;2.50;;;16.00;85.60;;;;;;5118758;28;20026;-77
2023/05/31 00:13:40;;;;;;;4.22;2.25;;;15.90;85.80;;;;;;5119509;28;20032;-79
2023/05/31 00:16:07;;;;;;;3.33;2.35;;;15.90;85.70;;;;;;5118793;28;20040;-79
2023/05/31 00:18:33;;;;;;;5.93;2.95;;;15.90;86.00;;;;;;5119266;28;20008;-79
2023/05/31 00:20:58;;;;;;;4.25;2.40;;;15.80;86.40;;;;;;5117819;28;20035;-79
2023/05/31 00:23:24;;;;;;;5.57;3.03;;;15.80;86.30;;;;;;5116383;28;20044;-78
2023/05/31 00:25:50;;;;;;;4.18;2.30;;;15.70;86.50;;;;;;5113748;28;20028;-79
2023/05/31 00:28:15;;;;;;;3.20;2.58;;;15.70;86.60;;;;;;5115107;28;20013;-78
2023/05/31 00:30:41;;;;;;;4.55;2.92;;;15.80;86.40;;;;;;5114843;28;20040;-78
2023/05/31 00:33:06;;;;;;;2.25;1.67;;;15.80;86.50;;;;;;5095720;28;20020;-79
2023/05/31 00:35:32;;;;;;;5.07;2.35;;;15.90;86.30;;;;;;5115616;28;20036;-79
2023/05/31 00:37:58;;;;;;;4.25;2.28;;;15.90;86.30;;;;;;5117729;28;20040;-78
2023/05/31 00:40:23;;;;;;;4.00;3.05;;;15.90;86.50;;;;;;5098905;28;20020;-78
2023/05/31 00:42:49;;;;;;;4.55;1.80;;;15.90;86.50;;;;;;5082511;28;20054;-78
2023/05/31 00:45:15;;;;;;;4.20;2.35;;;15.90;86.20;;;;;;5116057;28;20050;-79
2023/05/31 00:47:41;;;;;;;2.42;1.85;;;16.00;86.10;;;;;;5116925;28;20054;-79
2023/05/31 00:50:07;;;;;;;3.72;2.40;;;16.00;86.10;;;;;;5098469;28;20040;-78
2023/05/31 00:52:34;;;;;;;4.53;2.88;;;15.90;86.10;;;;;;5100027;28;20036;-80
2023/05/31 00:55:01;;;;;;;5.75;3.17;;;15.90;86.30;;;;;;5116681;28;20036;-79
2023/05/31 00:57:27;;;;;;;4.35;3.10;;;15.90;86.90;;;;;;5115179;28;20032;-78
2023/05/31 00:59:53;;;;;;;7.15;3.83;;;15.90;86.20;;;;;;5114738;28;20054;-78
2023/05/31 01:02:18;;;;;;;3.63;2.90;;;15.80;86.50;;;;;;5111893;28;20073;-78
2023/05/31 01:04:44;;;;;;;5.60;3.42;;;15.80;86.60;;;;;;5095653;28;20013;-78
2023/05/31 01:07:10;;;;;;;5.25;2.55;;;15.90;86.50;;;;;;5112483;28;20036;-78
2023/05/31 01:09:37;;;;;;;5.45;3.67;;;15.90;86.50;;;;;;5113025;28;20036;-78
2023/05/31 01:12:24;;;;;;;5.28;2.92;;;15.90;86.70;;;;;;5113532;28;20092;-78
2023/05/31 01:15:09;;;;;;;3.88;2.92;;;15.90;86.60;;;;;;5114056;28;20024;-78
2023/05/31 01:17:46;;;;;;;3.38;2.30;;;15.90;86.50;;;;;;5113716;28;20023;-78
2023/05/31 01:20:17;;;;;;;7.03;4.05;;;15.90;86.30;;;;;;5114345;28;20054;-78
2023/05/31 01:22:56;;;;;;;6.03;3.78;;;16.00;86.20;;;;;;5096911;28;20028;-78
2023/05/31 01:26:19;;;;;;;4.07;3.47;;;15.90;86.20;;;;;;5113780;28;20055;-79
2023/05/31 01:28:50;;;;;;;4.50;3.25;;;15.90;86.50;;;;;;5051432;28;20086;-78
2023/05/31 01:31:19;;;;;;;5.00;3.38;;;15.90;86.50;;;;;;5105073;28;20044;-78
2023/05/31 01:33:46;;;;;;;5.35;3.60;;;15.70;86.90;;;;;;5110322;28;20024;-77
2023/05/31 01:36:11;;;;;;;4.80;3.58;;;15.70;87.10;;;;;;5109483;28;20064;-78
2023/05/31 01:38:37;;;;;;;7.07;4.78;;;15.70;87.00;;;;;;5089365;28;20028;-78
2023/05/31 01:41:07;;;;;;;6.07;4.18;;;15.80;87.00;;;;;;5088481;28;20119;-78
2023/05/31 01:43:36;;;;;;;6.38;4.50;;;15.70;87.00;;;;;;5106881;28;20035;-77
2023/05/31 01:46:03;;;;;;;5.35;4.40;;;15.50;87.80;;;;;;5106315;28;20024;-77
2023/05/31 01:48:29;;;;;;;5.28;3.10;;;15.40;88.30;;;;;;5107186;28;20024;-78
2023/05/31 01:50:57;;;;;;;5.10;3.47;;;15.30;88.50;;;;;;5106232;28;20043;-77
2023/05/31 01:53:23;;;;;;;8.18;4.35;;;15.40;88.30;;;;;;5105678;28;20028;-78
2023/05/31 01:55:49;;;;;;;8.50;4.60;;;15.50;88.10;;;;;;5103282;28;20059;-78
2023/05/31 01:58:17;;;;;;;6.50;5.20;;;15.50;88.10;;;;;;5104465;28;20036;-77
2023/05/31 02:00:43;;;;;;;7.10;4.65;;;15.50;88.20;;;;;;5088825;28;20024;-78
2023/05/31 02:03:09;;;;;;;5.57;4.05;;;15.50;88.10;;;;;;5105219;28;20035;-78
2023/05/31 02:05:35;;;;;;;6.32;4.75;;;15.50;88.20;;;;;;5105967;28;20353;-78
2023/05/31 02:08:01;;;;;;;6.35;4.88;;;15.40;88.40;;;;;;5094383;28;20103;-78
2023/05/31 02:10:26;;;;;;;9.90;5.95;;;15.30;88.50;;;;;;5111921;28;20104;-78
2023/05/31 02:12:54;;;;;;;7.93;5.97;;;15.40;88.50;;;;;;5112928;28;20046;-78
2023/05/31 02:15:20;;;;;;;8.32;5.50;;;15.40;88.60;;;;;;5094855;28;20099;-78
2023/05/31 02:17:50;;;;;;;10.70;5.10;;;15.30;88.70;;;;;;5113244;28;20039;-78
2023/05/31 02:20:17;;;;;;;6.97;5.15;;;15.30;88.90;;;;;;5112318;28;20404;-78
2023/05/31 02:22:44;;;;;;;7.70;4.70;;;15.20;89.10;;;;;;5095089;28;20031;-77
2023/05/31 02:25:13;;;;;;;8.00;6.22;;;15.30;89.10;;;;;;5112427;28;20020;-78
2023/05/31 02:27:40;;;;;;;11.98;7.07;;;15.20;89.40;;;;;;5089747;28;20173;-78
2023/05/31 02:30:07;;;;;;;9.55;6.57;;;15.00;89.70;;;;;;5108611;28;20032;-77
2023/05/31 02:32:35;;;;;;;8.30;5.22;;;14.80;90.20;;;;;;5088952;28;20028;-77
2023/05/31 02:35:04;;;;;;;8.88;5.65;;;14.80;90.30;;;;;;5106742;28;20186;-78
2023/05/31 02:37:30;;;;;;;7.65;4.90;;;14.90;90.20;;;;;;5106860;28;20028;-78
2023/05/31 02:39:56;;;;;;;10.18;6.40;;;15.10;90.10;;;;;;5087138;28;20028;-78
2023/05/31 02:42:21;;;;;;;9.38;5.78;;;15.10;90.00;;;;;;5107935;28;20039;-77
2023/05/31 02:44:47;;;;;;;7.43;4.40;;;15.10;90.00;;;;;;5089148;28;20028;-77
2023/05/31 02:47:13;;;;;;;11.65;6.60;;;15.10;90.00;;;;;;5106209;28;20031;-78
2023/05/31 02:49:38;;;;;;;8.48;5.93;;;15.20;90.00;;;;;;5088362;28;20032;-78
2023/05/31 02:52:05;;;;;;;8.60;5.68;;;15.20;89.90;;;;;;5110109;28;20027;-78
2023/05/31 02:54:30;;;;;;;8.05;6.15;;;15.20;89.80;;;;;;5108303;28;20055;-78
2023/05/31 02:56:56;;;;;;;9.65;6.50;;;15.30;89.70;;;;;;5108222;28;20449;-78
2023/05/31 02:59:23;;;;;;;6.20;4.55;;;15.30;89.40;;;;;;5072730;28;20036;-78
2023/05/31 03:01:49;;;;;;;8.10;6.47;;;15.40;89.30;;;;;;5107182;28;20111;-78
2023/05/31 03:04:15;;;;;;;6.90;4.90;;;15.30;89.50;;;;;;5107426;28;20028;-77
2023/05/31 03:06:41;;;;;;;7.78;5.10;;;15.30;89.40;;;;;;5109165;28;20089;-78
2023/05/31 03:09:07;;;;;;;7.57;5.97;;;15.40;89.20;;;;;;5106767;28;20028;-79
2023/05/31 03:11:33;;;;;;;8.10;5.70;;;15.40;89.00;;;;;;5108017;28;20039;-77
2023/05/31 03:13:59;;;;;;;7.53;5.50;;;15.40;88.90;;;;;;5106016;28;20032;-78
2023/05/31 03:16:24;;;;;;;7.90;5.70;;;15.50;88.80;;;;;;5086645;28;20044;-78
2023/05/31 03:18:50;;;;;;;8.75;5.65;;;15.40;88.80;;;;;;5105280;28;20064;-79
2023/05/31 03:21:16;;;;;;;6.28;4.57;;;15.30;89.10;;;;;;5106791;28;20028;-78
2023/05/31 03:23:42;;;;;;;7.78;5.80;;;15.20;89.30;;;;;;5104115;28;20419;-78
2023/05/31 03:26:08;;;;;;;7.50;5.90;;;15.30;89.30;;;;;;5084846;28;20069;-78
2023/05/31 03:28:33;;;;;;;9.05;6.03;;;15.30;89.30;;;;;;5086112;28;20032;-77
2023/05/31 03:30:59;;;;;;;10.63;6.68;;;15.30;89.40;;;;;;5069260;28;20044;-78
2023/05/31 03:33:25;;;;;;;11.70;6.18;;;15.30;89.40;;;;;;5105535;28;20421;-78
2023/05/31 03:35:50;;;;;;;11.60;7.65;;;15.20;89.40;;;;;;5107507;28;20031;-77
2023/05/31 03:38:16;;;;;;;6.50;4.60;;;15.30;89.50;;;;;;5085907;28;20430;-77
2023/05/31 03:40:42;;;;;;;12.10;7.82;;;15.30;89.40;;;;;;5106319;28;20516;-78
2023/05/31 03:43:07;;;;;;;10.80;7.68;;;15.30;89.30;;;;;;5107087;28;20061;-79
2023/05/31 03:45:33;;;;;;;10.23;7.10;;;15.20;89.40;;;;;;5103121;28;20032;-78
2023/05/31 03:47:59;;;;;;;8.73;5.75;;;15.20;89.80;;;;;;5108953;28;20421;-78
2023/05/31 03:50:24;;;;;;;13.60;7.90;;;15.20;89.80;;;;;;5105957;28;20454;-78
2023/05/31 03:52:50;;;;;;;12.18;6.80;;;15.30;89.50;;;;;;5107488;28;20446;-78
2023/05/31 03:55:16;;;;;;;12.18;8.23;;;15.30;89.40;;;;;;5107051;28;20111;-78
2023/05/31 03:57:41;;;;;;;12.77;8.60;;;15.20;89.70;;;;;;5088695;28;20396;-78
2023/05/31 04:00:10;;;;;;;10.70;7.05;;;15.20;90.00;;;;;;5105381;28;20119;-78
2023/05/31 04:02:37;;;;;;;10.55;7.60;;;15.00;90.10;;;;;;5064971;28;20028;-80
2023/05/31 04:05:04;;;;;;;9.32;6.20;;;15.00;90.20;;;;;;5095342;28;20028;-81
2023/05/31 04:07:30;;;;;;;13.38;7.60;;;15.00;90.30;;;;;;5077140;28;20472;-80
2023/05/31 04:09:55;;;;;;;15.68;8.65;;;15.00;90.20;;;;;;5095486;28;20036;-80
2023/05/31 04:12:21;;;;;;;12.10;7.38;;;15.00;90.30;;;;;;5094596;28;20055;-80
2023/05/31 04:14:47;;;;;;;11.38;8.00;;;14.80;90.50;;;;;;5077221;28;20033;-81
2023/05/31 04:17:12;;;;;;;13.20;8.65;;;14.80;90.70;;;;;;5076712;28;20131;-80
2023/05/31 04:19:38;;;;;;;11.05;7.78;;;14.60;91.00;;;;;;5077361;28;20067;-80
2023/05/31 04:22:04;;;;;;;12.38;8.48;;;14.60;91.10;;;;;;5095059;28;20031;-80
2023/05/31 04:24:29;;;;;;;10.93;8.52;;;14.60;91.20;;;;;;5094966;28;20554;-80
2023/05/31 04:26:55;;;;;;;17.27;9.77;;;14.50;91.30;;;;;;5094737;28;20103;-80
2023/05/31 04:29:22;;;;;;;12.10;7.25;;;14.40;91.50;;;;;;5094554;28;20101;-80
2023/05/31 04:31:48;;;;;;;11.20;7.20;;;14.40;91.50;;;;;;5077210;28;20031;-80
2023/05/31 04:34:18;;;;;;;11.38;7.75;;;14.60;91.50;;;;;;5094787;28;20028;-80
2023/05/31 04:36:48;;;;;;;13.75;9.27;;;14.70;91.30;;;;;;5094529;28;20486;-80
2023/05/31 04:39:15;;;;;;;12.20;8.30;;;14.80;91.20;;;;;;5094985;28;20028;-80
2023/05/31 04:41:42;;;;;;;15.75;10.40;;;14.60;91.40;;;;;;5094498;28;20047;-78
2023/05/31 04:44:07;;;;;;;16.08;10.38;;;14.60;91.60;;;;;;5076704;28;20100;-80
2023/05/31 04:46:33;;;;;;;17.13;11.73;;;14.40;91.80;;;;;;5094358;28;20101;-80
2023/05/31 04:49:00;;;;;;;16.70;11.02;;;14.30;92.50;;;;;;5094479;28;20032;-80
2023/05/31 04:51:26;;;;;;;18.33;12.00;;;14.10;92.50;;;;;;5076819;28;20074;-80
2023/05/31 04:53:52;;;;;;;14.40;9.38;;;14.10;92.70;;;;;;5094289;28;20031;-80
2023/05/31 04:56:18;;;;;;;18.23;11.25;;;14.20;92.70;;;;;;5094314;28;20024;-80
2023/05/31 04:58:45;;;;;;;19.05;11.75;;;14.30;92.60;;;;;;5094557;28;20055;-80
2023/05/31 05:01:14;;;;;;;17.55;11.38;;;14.30;92.70;;;;;;5075885;28;20457;-81
2023/05/31 05:03:41;;;;;;;15.55;9.50;;;14.30;92.70;;;;;;5094920;28;20043;-80
2023/05/31 05:06:14;;;;;;;21.35;14.15;;;14.30;92.70;;;;;;5094075;28;20452;-80
2023/05/31 05:08:40;;;;;;;18.73;11.77;;;14.30;92.90;;;;;;5094052;28;20032;-79
2023/05/31 05:11:06;;;;;;;16.73;11.75;;;14.10;93.20;;;;;;5076047;28;20074;-80
2023/05/31 05:13:32;;;;;;;22.13;12.73;;;14.10;93.30;;;;;;5075970;28;20059;-80
2023/05/31 05:15:57;;;;;;;18.48;12.20;;;14.10;93.40;;;;;;5085224;28;20117;-80
2023/05/31 05:18:23;;;;;;;19.45;12.35;;;14.10;93.50;;;;;;5073774;28;20386;-79
2023/05/31 05:20:49;;;;;;;15.25;10.63;;;14.20;93.50;;;;;;5073757;28;20115;-80
2023/05/31 05:23:15;;;;;;;18.33;11.82;;;14.30;93.40;;;;;;5074229;28;20029;-80
2023/05/31 05:25:40;;;;;;;16.50;11.40;;;14.40;93.30;;;;;;5073638;28;20029;-79
2023/05/31 05:28:06;;;;;;;20.67;11.95;;;14.40;93.30;;;;;;5073992;28;20052;-79
2023/05/31 05:30:32;;;;;;;12.80;8.48;;;14.40;93.30;;;;;;5074194;28;20447;-80
2023/05/31 05:32:58;;;;;;;13.13;9.30;;;14.40;93.40;;;;;;5073879;28;20059;-79
2023/05/31 05:35:23;;;;;;;19.33;12.35;;;14.50;93.30;;;;;;5074356;28;20028;-77
2023/05/31 05:37:49;;;;;;;13.13;9.73;;;14.60;93.20;;;;;;5056399;28;20029;-78
2023/05/31 05:40:15;;;;;;;16.88;10.32;;;14.70;93.20;;;;;;5056923;28;20411;-78
2023/05/31 05:42:41;;;;;;;17.73;9.98;;;14.80;93.00;;;;;;5056342;28;20024;-78
2023/05/31 05:45:07;;;;;;;9.32;6.43;;;14.80;92.90;;;;;;5055618;28;20453;-78
2023/05/31 05:47:34;;;;;;;18.85;10.20;;;14.90;93.00;;;;;;5074920;28;20033;-77
2023/05/31 05:50:00;;;;;;;14.48;10.50;;;15.00;92.90;;;;;;5055481;28;20512;-78
2023/05/31 05:52:26;;;;;;;15.50;10.25;;;15.00;92.70;;;;;;5073703;28;20029;-77
2023/05/31 05:54:52;;;;;;;17.08;9.95;;;15.10;92.60;;;;;;5055958;28;20033;-80
2023/05/31 05:57:18;;;;;;;13.13;8.63;;;15.10;92.60;;;;;;5055094;28;20101;-78
2023/05/31 05:59:44;;;;;;;17.70;10.57;;;15.10;92.50;;;;;;5073436;28;20108;-78
2023/05/31 06:02:11;;;;;;;11.95;8.60;;;15.00;92.70;;;;;;5055123;28;20469;-78
2023/05/31 06:04:37;;;;;;;14.70;9.10;;;15.10;92.70;;;;;;5073824;28;20028;-77
2023/05/31 06:07:03;;;;;;;16.38;9.40;;;15.20;92.60;;;;;;5074022;28;20032;-80
2023/05/31 06:09:28;;;;;;;15.52;9.57;;;15.30;92.50;;;;;;5055815;28;20033;-78
2023/05/31 06:11:54;;;;;;;12.05;7.50;;;15.40;92.40;;;;;;5072795;28;20027;-79
2023/05/31 06:14:20;;;;;;;14.75;8.88;;;15.40;92.50;;;;;;5072899;28;20366;-78
2023/05/31 06:16:45;;;;;;;9.40;7.10;;;15.40;92.40;;;;;;5088333;28;20084;-78
2023/05/31 06:19:11;;;;;;;12.68;8.57;;;15.50;92.40;;;;;;5075563;28;20032;-77
2023/05/31 06:21:37;;;;;;;14.38;8.52;;;15.60;92.30;;;;;;5093380;28;20032;-76
2023/05/31 06:24:03;;;;;;;13.93;8.02;;;15.70;92.10;;;;;;5093579;28;20388;-77
2023/05/31 06:26:29;;;;;;;14.57;8.25;;;15.90;91.90;;;;;;5093247;28;20444;-77
2023/05/31 06:28:59;;;;;;;13.05;8.02;;;16.00;91.90;;;;;;5074943;28;20095;-77
2023/05/31 06:31:25;;;;;;;12.82;7.45;;;16.10;91.70;;;;;;5075979;28;20376;-77
2023/05/31 06:33:51;;;;;;;13.43;6.90;;;16.20;91.50;;;;;;5075111;28;20028;-77
2023/05/31 06:36:17;;;;;;;17.35;6.95;;;16.30;91.40;;;;;;5092845;28;20024;-77
2023/05/31 06:38:42;;;;;;;14.95;7.57;;;16.50;91.20;;;;;;5075347;28;20105;-78
2023/05/31 06:41:09;;;;;;;14.85;7.40;;;16.60;91.00;;;;;;5093435;28;20064;-79
2023/05/31 06:43:35;;;;;;;15.60;7.18;;;16.60;90.70;;;;;;5075635;28;20114;-78
2023/05/31 06:46:01;;;;;;;12.95;6.95;;;16.80;90.90;;;;;;5075165;28;20451;-78
2023/05/31 06:48:26;;;;;;;11.60;6.03;;;16.80;90.40;;;;;;5093855;28;20028;-77
2023/05/31 06:50:52;;;;;;;10.55;5.68;;;16.90;90.50;;;;;;5092913;28;20040;-76
2023/05/31 06:53:17;;;;;;;12.02;6.13;;;17.00;90.00;;;;;;5076723;28;20057;-77
2023/05/31 06:55:43;;;;;;;15.95;6.13;;;17.10;90.00;;;;;;5078424;28;20082;-77
2023/05/31 06:58:09;;;;;;;11.65;5.78;;;17.10;90.10;;;;;;5096909;28;20035;-79
2023/05/31 07:00:35;;;;;;;12.82;5.97;;;17.20;89.90;;;;;;5078328;28;20097;-77
2023/05/31 07:03:00;;;;;;;12.93;5.80;;;17.40;89.90;;;;;;5096614;28;20036;-78
2023/05/31 07:05:27;;;;;;;11.68;5.35;;;17.40;89.00;;;;;;5078916;28;20033;-78
2023/05/31 07:07:53;;;;;;;12.80;5.30;;;17.40;88.30;;;;;;5096074;28;20028;-76
2023/05/31 07:10:19;;;;;;;9.20;4.13;;;17.50;88.90;;;;;;5096506;28;20456;-77
2023/05/31 07:12:45;;;;;;;9.88;4.95;;;17.60;88.50;;;;;;5096160;28;20029;-78
2023/05/31 07:15:11;;;;;;;8.98;4.82;;;17.70;87.80;;;;;;5061831;28;20032;-77
2023/05/31 07:17:37;;;;;;;12.48;5.03;;;17.80;88.00;;;;;;5096304;28;20481;-78
2023/05/31 07:20:05;;;;;;;11.18;5.07;;;17.90;88.00;;;;;;5096292;28;20387;-78
2023/05/31 07:22:30;;;;;;;9.93;4.60;;;17.90;87.30;;;;;;5078694;28;20036;-78
2023/05/31 07:24:57;;;;;;;10.05;5.30;;;18.10;87.80;;;;;;5095952;28;20051;-79
2023/05/31 07:27:22;;;;;;;11.27;4.93;;;18.20;86.70;;;;;;5095761;28;20535;-78
2023/05/31 07:29:48;;;;;;;13.88;4.93;;;18.20;86.80;;;;;;5096480;28;20128;-78
2023/05/31 07:32:14;;;;;;;10.20;4.95;;;18.30;87.10;;;;;;5078343;28;20031;-78
2023/05/31 07:34:39;;;;;;;7.72;3.53;;;18.40;86.90;;;;;;5096287;28;20043;-78
2023/05/31 07:37:06;;;;;;;9.57;4.70;;;18.40;86.70;;;;;;5096111;28;20112;-77
2023/05/31 07:39:31;;;;;;;11.63;5.53;;;18.60;86.90;;;;;;5096068;28;20032;-77
2023/05/31 07:41:58;;;;;;;7.43;3.88;;;18.70;85.00;;;;;;5095937;28;20354;-77
2023/05/31 07:44:25;;;;;;;11.82;5.15;;;18.70;84.80;;;;;;5095641;28;20081;-75
2023/05/31 07:46:50;;;;;;;10.30;4.38;;;18.80;84.00;;;;;;5077482;28;20054;-76
2023/05/31 07:49:16;;;;;;;13.00;5.13;;;18.90;84.70;;;;;;5095179;28;20370;-77
2023/05/31 07:51:42;;;;;;;12.40;4.45;;;19.10;84.20;;;;;;5096141;28;20028;-77
2023/05/31 07:54:08;;;;;;;13.27;4.97;;;19.10;84.90;;;;;;5078189;28;20105;-77
2023/05/31 07:56:33;;;;;;;11.07;5.28;;;19.20;83.70;;;;;;5077702;28;20066;-77
2023/05/31 07:58:59;;;;;;;10.63;5.10;;;19.30;84.00;;;;;;5077876;28;20460;-77
2023/05/31 08:01:25;;;;;;;8.73;4.32;;;19.30;83.40;;;;;;5095561;28;20028;-78
2023/05/31 08:03:50;;;;;;;6.95;4.32;;;19.40;83.90;;;;;;5076463;28;20040;-78
2023/05/31 08:06:17;;;;;;;11.05;4.30;;;19.60;83.40;;;;;;5094958;28;20063;-76
2023/05/31 08:08:43;;;;;;;12.48;4.97;;;19.80;83.40;;;;;;5095391;28;20345;-78
2023/05/31 08:11:09;;;;;;;7.95;3.85;;;20.00;81.70;;;;;;5076847;28;20085;-77
2023/05/31 08:13:34;;;;;;;11.00;5.07;;;20.10;81.90;;;;;;5095219;28;20028;-77
2023/05/31 08:16:00;;;;;;;10.82;4.50;;;20.10;81.10;;;;;;5094491;28;20048;-78
2023/05/31 08:18:25;;;;;;;7.80;4.53;;;20.10;81.90;;;;;;5076979;28;20353;-78
2023/05/31 08:20:51;;;;;;;8.43;4.40;;;20.10;81.70;;;;;;5094762;28;20036;-78
2023/05/31 08:23:18;;;;;;;10.45;4.97;;;20.20;81.30;;;;;;5060769;28;20036;-77
2023/05/31 08:25:44;;;;;;;12.80;5.03;;;20.30;80.30;;;;;;5077283;28;20032;-78
2023/05/31 08:28:10;;;;;;;10.82;4.50;;;20.30;81.60;;;;;;5095374;28;20036;-77
2023/05/31 08:30:35;;;;;;;9.07;3.88;;;20.40;81.30;;;;;;5095061;28;20388;-76
2023/05/31 08:33:02;;;;;;;8.43;4.03;;;20.60;81.00;;;;;;5076614;28;20365;-78
2023/05/31 08:35:27;;;;;;;10.00;4.88;;;20.70;80.00;;;;;;5094556;28;20457;-77
2023/05/31 08:37:54;;;;;;;9.68;3.75;;;20.80;78.30;;;;;;5094628;28;20035;-78
2023/05/31 08:40:20;;;;;;;18.15;5.53;;;20.90;78.90;;;;;;5094736;28;20038;-78
2023/05/31 08:42:55;;;;;;;10.77;4.70;;;21.00;79.20;;;;;;5094743;28;20024;-78
2023/05/31 08:45:21;;;;;;;13.68;5.20;;;21.10;78.10;;;;;;5094288;28;20032;-80
2023/05/31 08:48:10;;;;;;;11.25;5.15;;;21.10;78.10;;;;;;5094574;28;20384;-77
2023/05/31 08:50:36;;;;;;;13.93;5.05;;;21.20;76.40;;;;;;5094641;28;20028;-77
2023/05/31 08:53:02;;;;;;;12.88;4.93;;;21.30;76.80;;;;;;5094408;28;20028;-76
2023/05/31 08:55:29;;;;;;;10.82;3.80;;;21.40;77.60;;;;;;5094508;28;20469;-77
2023/05/31 08:57:57;;;;;;;9.88;3.95;;;21.60;77.30;;;;;;5094386;28;20024;-78
2023/05/31 09:00:23;;;;;;;8.32;3.85;;;21.70;76.40;;;;;;5075987;28;20055;-77
2023/05/31 09:02:51;;;;;;;13.23;3.85;;;21.80;75.60;;;;;;5076088;28;20032;-78
2023/05/31 09:05:17;;;;;;;12.07;3.90;;;21.90;73.70;;;;;;5093913;28;20020;-78
2023/05/31 09:07:43;;;;;;;7.32;3.00;;;21.90;74.20;;;;;;5058849;28;20073;-78
2023/05/31 09:10:09;;;;;;;7.43;3.70;;;22.00;74.70;;;;;;5094619;28;20040;-79
2023/05/31 09:12:38;;;;;;;8.10;3.25;;;22.10;73.60;;;;;;5094101;28;20032;-78
2023/05/31 09:15:05;;;;;;;7.00;3.33;;;22.20;73.50;;;;;;5093477;28;20434;-78
2023/05/31 09:17:32;;;;;;;9.73;3.88;;;22.20;73.10;;;;;;5076200;28;20176;-77
2023/05/31 09:20:00;;;;;;;10.50;3.92;;;22.20;73.90;;;;;;5094021;28;20093;-77
2023/05/31 09:22:26;;;;;;;8.98;2.83;;;22.20;72.80;;;;;;5093913;28;20115;-78
2023/05/31 09:24:59;;;;;;;10.50;3.85;;;22.20;74.00;;;;;;5093991;28;20024;-78
2023/05/31 09:27:26;;;;;;;7.72;3.30;;;22.20;73.00;;;;;;5094366;28;20024;-78
2023/05/31 09:29:56;;;;;;;9.45;3.60;;;22.10;73.10;;;;;;5094192;28;20043;-78
2023/05/31 09:32:22;;;;;;;10.95;2.45;;;22.30;74.30;;;;;;5093527;28;20361;-78
2023/05/31 09:34:48;;;;;;;8.00;2.40;;;22.40;71.00;;;;;;5094130;28;20114;-78
2023/05/31 09:37:24;;;;;;;8.68;2.75;;;22.40;72.20;;;;;;5059118;28;20040;-78
2023/05/31 09:39:57;;;;;;;9.10;3.22;;;22.70;72.40;;;;;;5093557;28;20396;-77
2023/05/31 09:42:25;;;;;;;9.02;2.58;;;22.90;70.30;;;;;;5093710;28;20108;-79
2023/05/31 09:44:51;;;;;;;7.38;2.70;;;22.90;69.80;;;;;;5093959;28;20058;-78
2023/05/31 09:47:22;;;;;;;7.05;2.78;;;22.90;69.80;;;;;;5075580;28;20055;-78
2023/05/31 09:49:48;;;;;;;9.38;2.65;;;22.90;70.30;;;;;;5093671;28;20028;-79
2023/05/31 09:52:14;;;;;;;6.63;2.05;;;23.10;70.40;;;;;;5093364;28;20047;-79
2023/05/31 09:54:40;;;;;;;10.38;2.30;;;23.20;70.00;;;;;;5093925;28;20028;-79
2023/05/31 09:57:05;;;;;;;7.40;2.35;;;23.20;68.70;;;;;;5094308;28;20032;-78
2023/05/31 09:59:34;;;;;;;9.70;2.63;;;23.30;68.30;;;;;;5093624;28;20464;-77
2023/05/31 10:02:01;;;;;;;7.53;2.20;;;23.40;69.00;;;;;;5075425;28;20056;-77
2023/05/31 10:04:29;;;;;;;8.77;2.20;;;23.50;68.80;;;;;;5058919;28;20043;-77
2023/05/31 10:06:55;;;;;;;8.55;1.80;;;23.60;67.70;;;;;;5093544;28;20487;-77
2023/05/31 10:09:21;;;;;;;6.50;1.73;;;23.70;67.70;;;;;;5093364;28;20032;-77
2023/05/31 10:11:50;;;;;;;7.20;2.10;;;23.80;67.40;;;;;;5075269;28;20020;-77
2023/05/31 10:14:38;;;;;;;8.07;2.17;;;24.00;66.90;;;;;;5094220;28;20409;-80
2023/05/31 10:17:09;;;;;;;8.32;1.92;;;24.10;66.50;;;;;;5074990;28;20048;-78
2023/05/31 10:19:40;;;;;;;6.18;1.77;;;24.00;67.60;;;;;;5075999;28;20122;-78
2023/05/31 10:22:07;;;;;;;7.03;2.10;;;24.10;66.30;;;;;;5093987;28;20031;-77
2023/05/31 10:24:44;;;;;;;6.38;1.92;;;24.20;66.20;;;;;;5093309;28;20042;-78
2023/05/31 10:27:25;;;;;;;9.40;1.92;;;24.30;67.00;;;;;;5094044;28;20109;-78
2023/05/31 10:29:56;;;;;;;5.70;1.52;;;24.30;66.60;;;;;;5079131;28;20067;-78
2023/05/31 10:32:32;;;;;;;5.88;1.85;;;24.40;66.30;;;;;;5097493;28;20035;-78
2023/05/31 10:34:58;;;;;;;7.85;2.60;;;24.60;65.40;;;;;;5079720;28;20153;-78
2023/05/31 10:37:25;;;;;;;8.90;2.53;;;24.70;65.00;;;;;;5078419;28;20103;-78
2023/05/31 10:40:19;;;;;;;9.55;2.40;;;24.70;64.40;;;;;;5078160;28;20127;-78
2023/05/31 10:43:04;;;;;;;9.23;1.90;;;24.80;64.40;;;;;;5097021;28;20024;-77
2023/05/31 10:45:38;;;;;;;6.80;2.47;;;24.60;63.70;;;;;;5097255;28;20039;-76
2023/05/31 10:48:22;;;;;;;7.82;2.53;;;24.60;64.30;;;;;;5097224;28;20028;-76
2023/05/31 10:50:59;;;;;;;10.05;2.88;;;24.50;65.90;;;;;;5096938;28;20036;-77
2023/05/31 10:53:36;;;;;;;9.77;2.28;;;24.50;64.70;;;;;;5096366;28;20074;-77
2023/05/31 10:56:06;;;;;;;8.65;2.20;;;24.50;65.10;;;;;;5096964;28;20032;-76
2023/05/31 10:58:37;;;;;;;11.52;2.47;;;24.40;65.30;;;;;;5096468;28;20024;-78
2023/05/31 11:01:08;;;;;;;7.50;2.30;;;24.50;65.90;;;;;;5097128;28;20111;-77
2023/05/31 11:03:44;;;;;;;9.60;2.17;;;24.70;65.00;;;;;;5078101;28;20035;-77
2023/05/31 11:06:13;;;;;;;9.32;2.47;;;24.90;65.60;;;;;;5096488;28;20028;-78
2023/05/31 11:08:58;;;;;;;8.43;2.60;;;25.20;65.50;;;;;;5096267;28;20023;-79
2023/05/31 11:11:32;;;;;;;5.38;1.90;;;25.30;64.60;;;;;;5096660;28;20036;-78
2023/05/31 11:14:03;;;;;;;4.10;1.48;;;25.30;62.50;;;;;;5096413;28;20169;-77
2023/05/31 11:16:45;;;;;;;10.88;2.20;;;25.40;63.90;;;;;;5077851;28;20071;-77
2023/05/31 11:19:19;;;;;;;8.45;2.78;;;25.50;62.50;;;;;;5077874;28;20055;-78
2023/05/31 11:21:47;;;;;;;8.50;2.28;;;25.50;62.50;;;;;;5078215;28;20028;-77
2023/05/31 11:24:29;;;;;;;7.00;2.00;;;25.50;61.90;;;;;;5096469;28;20024;-78
2023/05/31 11:27:00;;;;;;;6.75;1.67;;;25.50;61.50;;;;;;5095863;28;20111;-76
2023/05/31 11:29:51;;;;;;;5.22;1.80;;;25.50;61.60;;;;;;5078185;28;20412;-77
2023/05/31 11:32:18;;;;;;;9.05;2.42;;;25.50;60.40;;;;;;5095874;28;20024;-77
2023/05/31 11:34:57;;;;;;;5.65;1.90;;;25.60;60.10;;;;;;5095970;28;20029;-78
2023/05/31 11:37:27;;;;;;;6.88;1.73;;;25.50;60.10;;;;;;5095572;28;20084;-75
2023/05/31 11:39:55;;;;;;;6.78;2.40;;;25.50;60.40;;;;;;5077647;28;20107;-75
2023/05/31 11:42:21;;;;;;;8.18;2.35;;;25.60;60.60;;;;;;5078061;28;20424;-76
2023/05/31 11:44:49;;;;;;;6.00;2.28;;;25.70;61.40;;;;;;5095843;28;20077;-77
2023/05/31 11:47:20;;;;;;;8.77;2.53;;;25.60;62.50;;;;;;5095972;28;20020;-78
2023/05/31 11:49:46;;;;;;;9.65;2.63;;;25.70;62.60;;;;;;5095611;28;20028;-78
2023/05/31 11:52:16;;;;;;;7.43;2.40;;;25.90;62.10;;;;;;5095632;28;20028;-79
2023/05/31 11:54:44;;;;;;;9.38;2.45;;;25.90;62.00;;;;;;5095186;28;20028;-77
2023/05/31 11:57:11;;;;;;;8.30;3.05;;;25.90;61.10;;;;;;5095234;28;20016;-76
2023/05/31 11:59:39;;;;;;;8.32;2.72;;;25.90;62.10;;;;;;5077895;28;20460;-74
2023/05/31 12:02:07;;;;;;;7.35;2.30;;;25.90;61.10;;;;;;5094922;28;20094;-77
2023/05/31 12:04:40;;;;;;;7.57;2.47;;;25.90;61.30;;;;;;5095048;28;20028;-78
2023/05/31 12:07:19;;;;;;;9.60;3.13;;;25.90;61.30;;;;;;5095181;28;20475;-76
2023/05/31 12:09:46;;;;;;;9.35;3.05;;;26.00;61.40;;;;;;5094992;28;20125;-77
2023/05/31 12:12:12;;;;;;;13.77;2.45;;;26.20;61.70;;;;;;5095201;28;20063;-78
2023/05/31 12:14:38;;;;;;;10.77;2.15;;;26.40;60.80;;;;;;5095157;28;20052;-76
2023/05/31 12:17:06;;;;;;;11.90;2.53;;;26.60;61.20;;;;;;5095436;28;20416;-75
2023/05/31 12:19:35;;;;;;;7.50;2.33;;;26.50;59.00;;;;;;5077465;28;20078;-76
2023/05/31 12:22:02;;;;;;;6.85;2.50;;;26.40;60.40;;;;;;5077423;28;20395;-76
2023/05/31 12:24:28;;;;;;;7.07;2.28;;;26.50;59.90;;;;;;5094941;28;20063;-76
2023/05/31 12:26:54;;;;;;;11.25;2.70;;;26.40;59.30;;;;;;5094733;28;20055;-76
2023/05/31 12:29:29;;;;;;;8.70;2.35;;;26.30;59.80;;;;;;5094957;28;20028;-76
2023/05/31 12:32:03;;;;;;;5.13;2.03;;;26.20;60.00;;;;;;5095147;28;20032;-76
2023/05/31 12:34:32;;;;;;;6.38;1.80;;;26.20;59.80;;;;;;5077019;28;20418;-76
2023/05/31 12:37:00;;;;;;;6.47;2.55;;;26.20;60.70;;;;;;5094513;28;20028;-77
2023/05/31 12:39:26;;;;;;;7.93;2.25;;;26.40;59.70;;;;;;5095018;28;20028;-77
2023/05/31 12:41:53;;;;;;;6.55;2.05;;;26.50;60.30;;;;;;5076525;28;20020;-76
2023/05/31 12:44:21;;;;;;;6.97;2.00;;;26.60;60.00;;;;;;5094525;28;20468;-77